Johnstone Strait: Past 24 Hour Conditions

 

South Hecate Strait - 46185

06:00 AM PDT 22 October 2017Buoy position: 52.43N 129.79W
Disclaimer

This table is a summary of hourly weather conditions for the past 24 hours.
Please note that these observations might not always be representative of weather conditions over their associated marine area.

Date / Time
(PDT)
Wind(knots) Wave height(m) Wave period(s) Pressure(kPa) Air tempC) Water tempC)
22 October 2017
6:00 SW 18 gust 23 2.4 10.0 99.8 11 12
5:00 WSW 19 gust 23 2.5 10.0 99.6 11 12
4:00 WSW 19 gust 23 2.6 9.0 99.5 11 12
3:00 SW 21 gust 27 2.4 8.0 99.3 11 12
2:00 WSW 21 gust 25 2.6 8.0 99.1 11 12
1:00 WSW 16 gust 19 2.5 8.0 99.0 10 12
0:00 SW 14 gust 18 2.7 8.0 98.9 11 12
21 October 2017
23:00 S 16 gust 19 2.8 8.0 98.9 11 12
22:00 S 16 gust 19 3.1 8.0 98.9 11 12
21:00 S 16 gust 18 3.1 8.0 98.9 11 12
20:00 SSW 12 gust 16 3.6 9.0 98.9 11 12
19:00 SW 14 gust 16 4.0 10.0 98.8 10 12
18:00 W 10 gust 16 3.9 11.0 98.7 10 12
17:00 NNW 4 gust 8 4.0 11.0 98.5 9 12
16:00 SE 10 gust 14 3.9 11.0 98.7 9 12
15:00 SSW 12 gust 16 4.1 10.0 98.8 10 12
14:00 S 14 gust 18 4.9 10.0 98.9 10 12
13:00 SSE 27 gust 35 5.3 10.0 98.9 10 12
12:00 SSE 29 gust 39 6.5 10.0 99.0 10 12
11:00 SSE 33 gust 43 7.0 10.0 99.0 9 12
10:00 SSE 37 gust 47 6.3 10.0 99.0 9 12
9:00 SSE 37 gust 47 5.9 9.0 99.1 9 12
8:00 SSE 39 gust 47 5.3 10.0 99.1 9 12
7:00 SSE 37 gust 43 4.8 8.0 99.3 10 12
6:00 SSE 37 gust 45 4.4 8.0 99.4 9 13

Zoom-in to make a selection

Map of Pacific - South Coast marine weather areas Tsawwassen Ferry Terminal South Nomad - 46036 Sentry Shoal - 46131 South Brooks - 46132 Halibut Bank - 46146 South Moresby - 46147 South Hecate Strait - 46185 West Sea Otter - 46204 La Perouse Bank - 46206 East Dellwood - 46207 Discovery Island Esquimalt Harbour Kelp Reefs Malahat Race Rocks Lightstation Saturna Island Sheringham Point University of Victoria Victoria Gonzales Victoria Int'l Airport Ballenas Islands Campbell River Airport Comox Airport Entrance Island Fanny Island Nanaimo Airport Port Hardy Airport Sisters Islets Estevan Point Sartine Island Solander Island Tofino Airport Grief Point Powell River Airport Sechelt Cape St.James Bella Bella Airport Bella Coola Airport Cathedral Point Herbert Island Point Atkinson Sand Heads Lightstation Vancouver Harbour Vancouver Int'l Airport West Vancouver Port Alberni Howe Sound - Pam Rocks Squamish Airport
Legend:
buoy Buoy
land station Land Station

Pacific - South Coast Area

Another Region

What we are doing

Features

Summer 2017: Significant weather across Canada

By analyzing weather events, ECCC is collecting more information as to how our climate is changing.

Date modified: